Buoy 46562

sailwx.info

Track history (hours):
 
Tides and Currents Weather Stations Pressure Air Temp Water Temp Dewpoint Dewpoint Depression Visibility Wind Speed Wind Dir Waves Ship Positions

Drifting buoy 46562

Last reported at 2014-Nov-26 00:00 UTC. Time now 2014-Nov-26 01:38 UTC.
Position N 54°25' W 161°02'.

Water temperature 7.7 ° C

Date/timePositionNaut miles runAvg speedWind from/ knotsBaromVisibWave heightAir tempDewpointWater temp
2014-Nov-26 00:00N 54°25' W 161°02'0 0.2 7.7
2014-Nov-25 23:00N 54°25' W 161°02'0 0.2 7.7
2014-Nov-25 22:00N 54°25' W 161°02'2 0.6 7.7
2014-Nov-25 18:00N 54°22' W 161°03'2 2.1 7.6
2014-Nov-25 17:00N 54°22' W 160°59'1 0.6 7.6
2014-Nov-25 16:00N 54°23' W 160°59'0 0.2 7.6
2014-Nov-25 15:00N 54°23' W 160°59'0 0.4 7.6
2014-Nov-25 14:00N 54°23' W 160°59'0 0.3 7.6
2014-Nov-25 13:00N 54°23' W 160°59'0 0.0 7.6
2014-Nov-25 12:00N 54°23' W 160°59'0 0.1 7.6
2014-Nov-25 11:00N 54°23' W 160°59'2 1.2 7.6
2014-Nov-25 09:00N 54°20' W 160°58'0 0.0 7.6
2014-Nov-25 08:00N 54°20' W 160°58'1 1.2 7.7
2014-Nov-25 07:00N 54°20' W 160°56'3 2.7 7.7
2014-Nov-25 06:00N 54°21' W 160°52'0 0.2 7.7
2014-Nov-25 05:00N 54°21' W 160°52'1 0.8 7.7
2014-Nov-25 04:00N 54°22' W 160°52'0 0.0 7.7
2014-Nov-25 03:00N 54°22' W 160°52'1 1.4 7.7
2014-Nov-25 02:00N 54°23' W 160°50'0 0.0 7.7
2014-Nov-25 01:00N 54°23' W 160°50'1 0.7 7.7
2014-Nov-25 00:00N 54°23' W 160°51'1 0.7 7.7
2014-Nov-24 23:00N 54°23' W 160°52'0 0.3 7.7
2014-Nov-24 22:00N 54°23' W 160°53'1 0.7 7.7
2014-Nov-24 21:00N 54°23' W 160°52'1 0.7 7.7
2014-Nov-24 19:00N 54°22' W 160°53'0 0.0 7.7
2014-Nov-24 18:00N 54°22' W 160°53'0 0.3 7.7
2014-Nov-24 17:00N 54°22' W 160°53'0 0.3 7.8
2014-Nov-24 16:00N 54°22' W 160°52'2 2.4 7.9
2014-Nov-24 15:00N 54°23' W 160°49'1 1.2 7.9
2014-Nov-24 14:00N 54°24' W 160°49'0 0.0 7.9
2014-Nov-24 13:00N 54°24' W 160°49'0 0.3 7.9
2014-Nov-24 12:00N 54°24' W 160°48'1 1.0 7.9
2014-Nov-24 11:00N 54°23' W 160°47'0 0.2 7.9
2014-Nov-24 10:00N 54°23' W 160°47'0 0.0 8.0
2014-Nov-24 08:00N 54°23' W 160°47'2 1.8 7.9
2014-Nov-24 07:00N 54°23' W 160°44'1 1.4 7.9
2014-Nov-24 06:00N 54°23' W 160°42'2 0.9 7.9
2014-Nov-24 04:00N 54°25' W 160°40'2 2.1 7.9
2014-Nov-24 03:00N 54°26' W 160°37'0 0.3 7.9
2014-Nov-24 02:00N 54°26' W 160°37'1 1.2 7.9
2014-Nov-24 01:00N 54°27' W 160°37'1 1.2 7.9
2014-Nov-24 00:00N 54°28' W 160°37'0 0.2 8.0
2014-Nov-23 23:00N 54°28' W 160°37'0 0.2 8.0
2014-Nov-23 22:00N 54°28' W 160°38'1 0.3 8.0
2014-Nov-23 20:00N 54°28' W 160°39'1 0.7 8.0
2014-Nov-23 19:00N 54°28' W 160°40'0 0.0 8.0
2014-Nov-23 17:00N 54°28' W 160°40'1 0.7 8.0
2014-Nov-23 16:00N 54°28' W 160°38'1 1.0 8.0
2014-Nov-23 15:00N 54°28' W 160°40'1 0.7 8.0
2014-Nov-23 14:00N 54°28' W 160°41'1 0.5 8.0
2014-Nov-23 12:00N 54°28' W 160°42'6 1.5 8.0
2014-Nov-23 08:00N 54°22' W 160°47'1 0.7 8.1
2014-Nov-23 07:00N 54°22' W 160°46'1 0.6 8.1
2014-Nov-23 06:00N 54°21' W 160°46'1 0.7 8.1
2014-Nov-23 05:00N 54°21' W 160°45'0 0.0 7.8
2014-Nov-23 04:00N 54°21' W 160°45'1 0.6 7.8
2014-Nov-23 03:00N 54°22' W 160°45'1 1.4 7.8
2014-Nov-23 02:00N 54°23' W 160°44'1 0.3 7.8
2014-Nov-23 00:00N 54°23' W 160°45'1 0.9 7.9
2014-Nov-22 23:00N 54°23' W 160°46'1 0.7 7.9
2014-Nov-22 22:00N 54°23' W 160°47'0 0.3 7.9
2014-Nov-22 21:00N 54°23' W 160°48'2 1.8 7.9
2014-Nov-22 20:00N 54°23' W 160°51'0 0.1 7.9
2014-Nov-22 19:00N 54°23' W 160°51'1 0.3 7.8
2014-Nov-22 17:00N 54°22' W 160°51'0 0.3 7.8
2014-Nov-22 16:00N 54°22' W 160°52'0 0.2 7.9
2014-Nov-22 14:00N 54°22' W 160°51'1 1.4 7.9
2014-Nov-22 13:00N 54°22' W 160°53'0 0.3 7.9
2014-Nov-22 12:00N 54°22' W 160°53'3 2.9 7.8
2014-Nov-22 11:00N 54°22' W 160°58'1 0.2 7.8
2014-Nov-22 08:00N 54°21' W 160°58'1 1.4 7.7
2014-Nov-22 07:00N 54°20' W 160°59'1 0.7 7.7
2014-Nov-22 06:00N 54°20' W 160°58'1 1.2 7.6
2014-Nov-22 05:00N 54°19' W 160°59'1 0.6 7.7
2014-Nov-22 04:00N 54°18' W 160°59'0 0.1 7.7
2014-Nov-22 02:00N 54°18' W 160°58'0 0.3 7.7
2014-Nov-22 01:00N 54°18' W 160°59'1 0.9 7.7
2014-Nov-22 00:00N 54°19' W 161°00'0 0.0 7.7
2014-Nov-21 23:00N 54°19' W 161°00'2 0.9 7.7
2014-Nov-21 21:00N 54°18' W 161°03'1 0.6 7.7
2014-Nov-21 20:00N 54°18' W 161°02'2 1.1 7.6
2014-Nov-21 18:00N 54°16' W 161°02'0 0.0 7.6
2014-Nov-21 17:00N 54°16' W 161°02'1 0.7 7.6
2014-Nov-21 16:00N 54°16' W 161°01'0 0.0 7.6
2014-Nov-21 15:00N 54°16' W 161°01'2 1.9 7.6
2014-Nov-21 14:00N 54°16' W 160°58'1 0.9 7.5
2014-Nov-21 13:00N 54°17' W 160°59'0 0.0 7.5
2014-Nov-21 12:00N 54°17' W 160°59'1 0.7 7.5
2014-Nov-21 11:00N 54°17' W 160°59'2 1.2 7.5
2014-Nov-21 09:00N 54°19' W 160°56'0 0.2 7.6
2014-Nov-21 07:00N 54°19' W 160°55'1 1.4 7.8
2014-Nov-21 06:00N 54°19' W 160°53'3 2.5 7.9
2014-Nov-21 05:00N 54°19' W 160°49'1 0.3 8.0
2014-Nov-21 03:00N 54°20' W 160°49'1 1.2 8.0
2014-Nov-21 02:00N 54°20' W 160°47'1 0.9 8.0
2014-Nov-21 01:00N 54°21' W 160°46'2 2.4 8.0
2014-Nov-21 00:00N 54°23' W 160°46'0 0.0 8.0
2014-Nov-20 23:00N 54°23' W 160°46'2 1.9 8.0
2014-Nov-20 22:00N 54°25' W 160°44'1 0.7 8.1
2014-Nov-20 21:00N 54°25' W 160°46'0 0.1 8.1
2014-Nov-20 20:00N 54°25' W 160°46'2 0.7 8.1
2014-Nov-20 17:00N 54°25' W 160°42'0 0.0 8.1
2014-Nov-20 16:00N 54°25' W 160°42'2 1.7 8.1
2014-Nov-20 15:00N 54°25' W 160°39'1 0.7 8.1
2014-Nov-20 14:00N 54°26' W 160°38'0 0.0 8.0
2014-Nov-20 13:00N 54°26' W 160°38'7 1.8 8.0
2014-Nov-20 09:00N 54°26' W 160°26'1 0.3 8.0
2014-Nov-20 07:00N 54°26' W 160°25'4 3.9 8.0
2014-Nov-20 06:00N 54°25' W 160°18'1 0.2 8.1
2014-Nov-20 03:00N 54°25' W 160°17'0 0.0 8.1
2014-Nov-20 02:00N 54°25' W 160°17'1 1.2 8.1
2014-Nov-20 01:00N 54°24' W 160°16'2 1.8 8.1
2014-Nov-20 00:00N 54°23' W 160°13'0 0.0 8.0
2014-Nov-19 23:00N 54°23' W 160°13'2 2.3 8.0
2014-Nov-19 22:00N 54°23' W 160°09'1 1.1 7.9
2014-Nov-19 21:00N 54°23' W 160°07'0 0.0 7.9
2014-Nov-19 20:00N 54°23' W 160°07'6 5.6 8.0
2014-Nov-19 19:00N 54°23' W 159°58'0 0.0 8.1
2014-Nov-19 18:00N 54°23' W 159°58'2 1.5 8.0
2014-Nov-19 17:00N 54°22' W 159°55'2 1.8 7.9
2014-Nov-19 16:00N 54°23' W 159°52'1 1.0 7.7
2014-Nov-19 15:00N 54°23' W 159°50'3 2.5 7.7
2014-Nov-19 14:00N 54°23' W 159°46'2 1.5 7.7
2014-Nov-19 13:00N 54°23' W 159°44'1 0.3 7.6
2014-Nov-19 11:00N 54°23' W 159°43'8 2.7 7.4
2014-Nov-19 08:00N 54°22' W 159°29'0 0.1 7.3
2014-Nov-19 07:00N 54°22' W 159°29'3 2.9 7.3
2014-Nov-19 06:00N 54°23' W 159°25'1 0.3 7.3
2014-Nov-19 04:00N 54°23' W 159°25'1 1.2 7.4
2014-Nov-19 03:00N 54°23' W 159°23'2 1.6 7.4
2014-Nov-19 02:00N 54°25' W 159°21'3 2.5 7.4
2014-Nov-19 01:00N 54°26' W 159°18'1 0.9 7.4
2014-Nov-19 00:00N 54°26' W 159°17'2 2.3 7.5
2014-Nov-18 23:00N 54°28' W 159°14'0 0.0 7.5
2014-Nov-18 22:00N 54°28' W 159°14'4 3.9 7.5
2014-Nov-18 21:00N 54°29' W 159°08'1 0.5 7.6
2014-Nov-18 19:00N 54°29' W 159°07'0 0.4 7.6
2014-Nov-18 18:00N 54°29' W 159°07'0 0.0 7.6
2014-Nov-18 17:00N 54°29' W 159°07'2 2.0 7.7
2014-Nov-18 16:00N 54°30' W 159°04'2 1.5 7.7
2014-Nov-18 15:00N 54°31' W 159°01'2 1.8 7.7
2014-Nov-18 14:00N 54°31' W 158°58'2 2.5 7.7
2014-Nov-18 13:00N 54°32' W 158°55'4 3.9 7.7
2014-Nov-18 12:00N 54°35' W 158°49'4 3.9 7.7
2014-Nov-18 11:00N 54°32' W 158°55'7 2.3 7.7
2014-Nov-18 08:00N 54°35' W 158°44'0 0.0 7.4
2014-Nov-18 07:00N 54°35' W 158°44'1 0.7 7.4
2014-Nov-18 06:00N 54°35' W 158°43'2 1.7 7.5
2014-Nov-18 05:00N 54°35' W 158°40'1 0.7 7.5
2014-Nov-18 04:00N 54°36' W 158°39'2 1.7 7.5
2014-Nov-18 03:00N 54°36' W 158°36'3 3.1 7.5
2014-Nov-18 02:00N 54°36' W 158°31'0 0.3 7.5
2014-Nov-18 01:00N 54°36' W 158°31'3 3.2 7.6
2014-Nov-18 00:00N 54°37' W 158°25'3 2.8 7.6
2014-Nov-17 23:00N 54°37' W 158°20'0 0.0 7.6
2014-Nov-17 22:00N 54°37' W 158°20'5 4.7 7.6
2014-Nov-17 21:00N 54°38' W 158°13'3 0.7 7.6
2014-Nov-17 17:00N 54°37' W 158°08'3 2.5 7.4
2014-Nov-17 16:00N 54°37' W 158°04'1 0.9 7.4
2014-Nov-17 15:00N 54°37' W 158°03'2 1.5 7.4
2014-Nov-17 14:00N 54°37' W 158°01'2 2.2 7.4
2014-Nov-17 13:00N 54°37' W 157°57'0 0.0 7.4
2014-Nov-17 12:00N 54°37' W 157°57'6 1.4 7.4
2014-Nov-17 08:00N 54°37' W 157°47'0 0.0 7.5
2014-Nov-17 07:00N 54°37' W 157°47'0 0.0 7.5
2014-Nov-17 06:00N 54°37' W 157°47'3 3.1 7.5
2014-Nov-17 05:00N 54°37' W 157°42'0 0.0 7.5
2014-Nov-17 04:00N 54°37' W 157°42'0 0.3 7.5
2014-Nov-17 03:00N 54°37' W 157°41'1 1.2 7.5
2014-Nov-17 02:00N 54°38' W 157°40'0 0.3 7.5
2014-Nov-17 01:00N 54°38' W 157°39'1 0.9 7.5
2014-Nov-17 00:00N 54°38' W 157°38'1 0.9 7.5
2014-Nov-16 23:00N 54°39' W 157°36'0 0.2 7.5
2014-Nov-16 22:00N 54°39' W 157°37'1 1.0 7.5
2014-Nov-16 21:00N 54°39' W 157°35'3 2.8 7.5
2014-Nov-16 20:00N 54°39' W 157°30'0 0.0 7.5
2014-Nov-16 18:00N 54°39' W 157°30'1 1.0 7.6
2014-Nov-16 17:00N 54°39' W 157°28'1 0.7 7.6
2014-Nov-16 16:00N 54°40' W 157°28'2 1.6 7.6
2014-Nov-16 15:00N 54°41' W 157°26'5 4.5 7.6
2014-Nov-16 14:00N 54°41' W 157°18'0 0.0 7.6
2014-Nov-16 13:00N 54°41' W 157°18'0 0.0 7.6
2014-Nov-16 12:00N 54°41' W 157°18'1 0.2 7.6
2014-Nov-16 09:00N 54°41' W 157°18'1 0.5 7.6
2014-Nov-16 07:00N 54°41' W 157°16'2 2.2 7.6
2014-Nov-16 06:00N 54°42' W 157°13'1 1.2 7.6
2014-Nov-16 05:00N 54°43' W 157°11'1 0.6 7.6
2014-Nov-16 04:00N 54°42' W 157°11'2 1.5 7.7
2014-Nov-16 03:00N 54°43' W 157°08'0 0.3 7.7
2014-Nov-16 02:00N 54°43' W 157°09'2 1.8 7.7
2014-Nov-16 01:00N 54°43' W 157°06'2 1.8 7.7
2014-Nov-16 00:00N 54°44' W 157°04'   7.6
Track history (hours):
 
Tides and Currents Weather Stations Pressure Air Temp Water Temp Dewpoint Dewpoint Depression Visibility Wind Speed Wind Dir Waves Ship Positions

Drifting buoy 46562

Last reported at 2014-Nov-26 00:00 UTC. Time now 2014-Nov-26 01:38 UTC.
Position N 54°25' W 161°02'.

Water temperature 7.7 ° C

Date/timePositionNaut miles runAvg speedWind from/ knotsBaromVisibWave heightAir tempDewpointWater temp
2014-Nov-26 00:00N 54°25' W 161°02'0 0.2 7.7
2014-Nov-25 23:00N 54°25' W 161°02'0 0.2 7.7
2014-Nov-25 22:00N 54°25' W 161°02'2 0.6 7.7
2014-Nov-25 18:00N 54°22' W 161°03'2 2.1 7.6
2014-Nov-25 17:00N 54°22' W 160°59'1 0.6 7.6
2014-Nov-25 16:00N 54°23' W 160°59'0 0.2 7.6
2014-Nov-25 15:00N 54°23' W 160°59'0 0.4 7.6
2014-Nov-25 14:00N 54°23' W 160°59'0 0.3 7.6
2014-Nov-25 13:00N 54°23' W 160°59'0 0.0 7.6
2014-Nov-25 12:00N 54°23' W 160°59'0 0.1 7.6
2014-Nov-25 11:00N 54°23' W 160°59'2 1.2 7.6
2014-Nov-25 09:00N 54°20' W 160°58'0 0.0 7.6
2014-Nov-25 08:00N 54°20' W 160°58'1 1.2 7.7
2014-Nov-25 07:00N 54°20' W 160°56'3 2.7 7.7
2014-Nov-25 06:00N 54°21' W 160°52'0 0.2 7.7
2014-Nov-25 05:00N 54°21' W 160°52'1 0.8 7.7
2014-Nov-25 04:00N 54°22' W 160°52'0 0.0 7.7
2014-Nov-25 03:00N 54°22' W 160°52'1 1.4 7.7
2014-Nov-25 02:00N 54°23' W 160°50'0 0.0 7.7
2014-Nov-25 01:00N 54°23' W 160°50'1 0.7 7.7
2014-Nov-25 00:00N 54°23' W 160°51'1 0.7 7.7
2014-Nov-24 23:00N 54°23' W 160°52'0 0.3 7.7
2014-Nov-24 22:00N 54°23' W 160°53'1 0.7 7.7
2014-Nov-24 21:00N 54°23' W 160°52'1 0.7 7.7
2014-Nov-24 19:00N 54°22' W 160°53'0 0.0 7.7
2014-Nov-24 18:00N 54°22' W 160°53'0 0.3 7.7
2014-Nov-24 17:00N 54°22' W 160°53'0 0.3 7.8
2014-Nov-24 16:00N 54°22' W 160°52'2 2.4 7.9
2014-Nov-24 15:00N 54°23' W 160°49'1 1.2 7.9
2014-Nov-24 14:00N 54°24' W 160°49'0 0.0 7.9
2014-Nov-24 13:00N 54°24' W 160°49'0 0.3 7.9
2014-Nov-24 12:00N 54°24' W 160°48'1 1.0 7.9
2014-Nov-24 11:00N 54°23' W 160°47'0 0.2 7.9
2014-Nov-24 10:00N 54°23' W 160°47'0 0.0 8.0
2014-Nov-24 08:00N 54°23' W 160°47'2 1.8 7.9
2014-Nov-24 07:00N 54°23' W 160°44'1 1.4 7.9
2014-Nov-24 06:00N 54°23' W 160°42'2 0.9 7.9
2014-Nov-24 04:00N 54°25' W 160°40'2 2.1 7.9
2014-Nov-24 03:00N 54°26' W 160°37'0 0.3 7.9
2014-Nov-24 02:00N 54°26' W 160°37'1 1.2 7.9
2014-Nov-24 01:00N 54°27' W 160°37'1 1.2 7.9
2014-Nov-24 00:00N 54°28' W 160°37'0 0.2 8.0
2014-Nov-23 23:00N 54°28' W 160°37'0 0.2 8.0
2014-Nov-23 22:00N 54°28' W 160°38'1 0.3 8.0
2014-Nov-23 20:00N 54°28' W 160°39'1 0.7 8.0
2014-Nov-23 19:00N 54°28' W 160°40'0 0.0 8.0
2014-Nov-23 17:00N 54°28' W 160°40'1 0.7 8.0
2014-Nov-23 16:00N 54°28' W 160°38'1 1.0 8.0
2014-Nov-23 15:00N 54°28' W 160°40'1 0.7 8.0
2014-Nov-23 14:00N 54°28' W 160°41'1 0.5 8.0
2014-Nov-23 12:00N 54°28' W 160°42'6 1.5 8.0
2014-Nov-23 08:00N 54°22' W 160°47'1 0.7 8.1
2014-Nov-23 07:00N 54°22' W 160°46'1 0.6 8.1
2014-Nov-23 06:00N 54°21' W 160°46'1 0.7 8.1
2014-Nov-23 05:00N 54°21' W 160°45'0 0.0 7.8
2014-Nov-23 04:00N 54°21' W 160°45'1 0.6 7.8
2014-Nov-23 03:00N 54°22' W 160°45'1 1.4 7.8
2014-Nov-23 02:00N 54°23' W 160°44'1 0.3 7.8
2014-Nov-23 00:00N 54°23' W 160°45'1 0.9 7.9
2014-Nov-22 23:00N 54°23' W 160°46'1 0.7 7.9
2014-Nov-22 22:00N 54°23' W 160°47'0 0.3 7.9
2014-Nov-22 21:00N 54°23' W 160°48'2 1.8 7.9
2014-Nov-22 20:00N 54°23' W 160°51'0 0.1 7.9
2014-Nov-22 19:00N 54°23' W 160°51'1 0.3 7.8
2014-Nov-22 17:00N 54°22' W 160°51'0 0.3 7.8
2014-Nov-22 16:00N 54°22' W 160°52'0 0.2 7.9
2014-Nov-22 14:00N 54°22' W 160°51'1 1.4 7.9
2014-Nov-22 13:00N 54°22' W 160°53'0 0.3 7.9
2014-Nov-22 12:00N 54°22' W 160°53'3 2.9 7.8
2014-Nov-22 11:00N 54°22' W 160°58'1 0.2 7.8
2014-Nov-22 08:00N 54°21' W 160°58'1 1.4 7.7
2014-Nov-22 07:00N 54°20' W 160°59'1 0.7 7.7
2014-Nov-22 06:00N 54°20' W 160°58'1 1.2 7.6
2014-Nov-22 05:00N 54°19' W 160°59'1 0.6 7.7
2014-Nov-22 04:00N 54°18' W 160°59'0 0.1 7.7
2014-Nov-22 02:00N 54°18' W 160°58'0 0.3 7.7
2014-Nov-22 01:00N 54°18' W 160°59'1 0.9 7.7
2014-Nov-22 00:00N 54°19' W 161°00'0 0.0 7.7
2014-Nov-21 23:00N 54°19' W 161°00'2 0.9 7.7
2014-Nov-21 21:00N 54°18' W 161°03'1 0.6 7.7
2014-Nov-21 20:00N 54°18' W 161°02'2 1.1 7.6
2014-Nov-21 18:00N 54°16' W 161°02'0 0.0 7.6
2014-Nov-21 17:00N 54°16' W 161°02'1 0.7 7.6
2014-Nov-21 16:00N 54°16' W 161°01'0 0.0 7.6
2014-Nov-21 15:00N 54°16' W 161°01'2 1.9 7.6
2014-Nov-21 14:00N 54°16' W 160°58'1 0.9 7.5
2014-Nov-21 13:00N 54°17' W 160°59'0 0.0 7.5
2014-Nov-21 12:00N 54°17' W 160°59'1 0.7 7.5
2014-Nov-21 11:00N 54°17' W 160°59'2 1.2 7.5
2014-Nov-21 09:00N 54°19' W 160°56'0 0.2 7.6
2014-Nov-21 07:00N 54°19' W 160°55'1 1.4 7.8
2014-Nov-21 06:00N 54°19' W 160°53'3 2.5 7.9
2014-Nov-21 05:00N 54°19' W 160°49'1 0.3 8.0
2014-Nov-21 03:00N 54°20' W 160°49'1 1.2 8.0
2014-Nov-21 02:00N 54°20' W 160°47'1 0.9 8.0
2014-Nov-21 01:00N 54°21' W 160°46'2 2.4 8.0
2014-Nov-21 00:00N 54°23' W 160°46'0 0.0 8.0
2014-Nov-20 23:00N 54°23' W 160°46'2 1.9 8.0
2014-Nov-20 22:00N 54°25' W 160°44'1 0.7 8.1
2014-Nov-20 21:00N 54°25' W 160°46'0 0.1 8.1
2014-Nov-20 20:00N 54°25' W 160°46'2 0.7 8.1
2014-Nov-20 17:00N 54°25' W 160°42'0 0.0 8.1
2014-Nov-20 16:00N 54°25' W 160°42'2 1.7 8.1
2014-Nov-20 15:00N 54°25' W 160°39'1 0.7 8.1
2014-Nov-20 14:00N 54°26' W 160°38'0 0.0 8.0
2014-Nov-20 13:00N 54°26' W 160°38'7 1.8 8.0
2014-Nov-20 09:00N 54°26' W 160°26'1 0.3 8.0
2014-Nov-20 07:00N 54°26' W 160°25'4 3.9 8.0
2014-Nov-20 06:00N 54°25' W 160°18'1 0.2 8.1
2014-Nov-20 03:00N 54°25' W 160°17'0 0.0 8.1
2014-Nov-20 02:00N 54°25' W 160°17'1 1.2 8.1
2014-Nov-20 01:00N 54°24' W 160°16'2 1.8 8.1
2014-Nov-20 00:00N 54°23' W 160°13'0 0.0 8.0
2014-Nov-19 23:00N 54°23' W 160°13'2 2.3 8.0
2014-Nov-19 22:00N 54°23' W 160°09'1 1.1 7.9
2014-Nov-19 21:00N 54°23' W 160°07'0 0.0 7.9
2014-Nov-19 20:00N 54°23' W 160°07'6 5.6 8.0
2014-Nov-19 19:00N 54°23' W 159°58'0 0.0 8.1
2014-Nov-19 18:00N 54°23' W 159°58'2 1.5 8.0
2014-Nov-19 17:00N 54°22' W 159°55'2 1.8 7.9
2014-Nov-19 16:00N 54°23' W 159°52'1 1.0 7.7
2014-Nov-19 15:00N 54°23' W 159°50'3 2.5 7.7
2014-Nov-19 14:00N 54°23' W 159°46'2 1.5 7.7
2014-Nov-19 13:00N 54°23' W 159°44'1 0.3 7.6
2014-Nov-19 11:00N 54°23' W 159°43'8 2.7 7.4
2014-Nov-19 08:00N 54°22' W 159°29'0 0.1 7.3
2014-Nov-19 07:00N 54°22' W 159°29'3 2.9 7.3
2014-Nov-19 06:00N 54°23' W 159°25'1 0.3 7.3
2014-Nov-19 04:00N 54°23' W 159°25'1 1.2 7.4
2014-Nov-19 03:00N 54°23' W 159°23'2 1.6 7.4
2014-Nov-19 02:00N 54°25' W 159°21'3 2.5 7.4
2014-Nov-19 01:00N 54°26' W 159°18'1 0.9 7.4
2014-Nov-19 00:00N 54°26' W 159°17'2 2.3 7.5
2014-Nov-18 23:00N 54°28' W 159°14'0 0.0 7.5
2014-Nov-18 22:00N 54°28' W 159°14'4 3.9 7.5
2014-Nov-18 21:00N 54°29' W 159°08'1 0.5 7.6
2014-Nov-18 19:00N 54°29' W 159°07'0 0.4 7.6
2014-Nov-18 18:00N 54°29' W 159°07'0 0.0 7.6
2014-Nov-18 17:00N 54°29' W 159°07'2 2.0 7.7
2014-Nov-18 16:00N 54°30' W 159°04'2 1.5 7.7
2014-Nov-18 15:00N 54°31' W 159°01'2 1.8 7.7
2014-Nov-18 14:00N 54°31' W 158°58'2 2.5 7.7
2014-Nov-18 13:00N 54°32' W 158°55'4 3.9 7.7
2014-Nov-18 12:00N 54°35' W 158°49'4 3.9 7.7
2014-Nov-18 11:00N 54°32' W 158°55'7 2.3 7.7
2014-Nov-18 08:00N 54°35' W 158°44'0 0.0 7.4
2014-Nov-18 07:00N 54°35' W 158°44'1 0.7 7.4
2014-Nov-18 06:00N 54°35' W 158°43'2 1.7 7.5
2014-Nov-18 05:00N 54°35' W 158°40'1 0.7 7.5
2014-Nov-18 04:00N 54°36' W 158°39'2 1.7 7.5
2014-Nov-18 03:00N 54°36' W 158°36'3 3.1 7.5
2014-Nov-18 02:00N 54°36' W 158°31'0 0.3 7.5
2014-Nov-18 01:00N 54°36' W 158°31'3 3.2 7.6
2014-Nov-18 00:00N 54°37' W 158°25'3 2.8 7.6
2014-Nov-17 23:00N 54°37' W 158°20'0 0.0 7.6
2014-Nov-17 22:00N 54°37' W 158°20'5 4.7 7.6
2014-Nov-17 21:00N 54°38' W 158°13'3 0.7 7.6
2014-Nov-17 17:00N 54°37' W 158°08'3 2.5 7.4
2014-Nov-17 16:00N 54°37' W 158°04'1 0.9 7.4
2014-Nov-17 15:00N 54°37' W 158°03'2 1.5 7.4
2014-Nov-17 14:00N 54°37' W 158°01'2 2.2 7.4
2014-Nov-17 13:00N 54°37' W 157°57'0 0.0 7.4
2014-Nov-17 12:00N 54°37' W 157°57'6 1.4 7.4
2014-Nov-17 08:00N 54°37' W 157°47'0 0.0 7.5
2014-Nov-17 07:00N 54°37' W 157°47'0 0.0 7.5
2014-Nov-17 06:00N 54°37' W 157°47'3 3.1 7.5
2014-Nov-17 05:00N 54°37' W 157°42'0 0.0 7.5
2014-Nov-17 04:00N 54°37' W 157°42'0 0.3 7.5
2014-Nov-17 03:00N 54°37' W 157°41'1 1.2 7.5
2014-Nov-17 02:00N 54°38' W 157°40'0 0.3 7.5
2014-Nov-17 01:00N 54°38' W 157°39'1 0.9 7.5
2014-Nov-17 00:00N 54°38' W 157°38'1 0.9 7.5
2014-Nov-16 23:00N 54°39' W 157°36'0 0.2 7.5
2014-Nov-16 22:00N 54°39' W 157°37'1 1.0 7.5
2014-Nov-16 21:00N 54°39' W 157°35'3 2.8 7.5
2014-Nov-16 20:00N 54°39' W 157°30'0 0.0 7.5
2014-Nov-16 18:00N 54°39' W 157°30'1 1.0 7.6
2014-Nov-16 17:00N 54°39' W 157°28'1 0.7 7.6
2014-Nov-16 16:00N 54°40' W 157°28'2 1.6 7.6
2014-Nov-16 15:00N 54°41' W 157°26'5 4.5 7.6
2014-Nov-16 14:00N 54°41' W 157°18'0 0.0 7.6
2014-Nov-16 13:00N 54°41' W 157°18'0 0.0 7.6
2014-Nov-16 12:00N 54°41' W 157°18'1 0.2 7.6
2014-Nov-16 09:00N 54°41' W 157°18'1 0.5 7.6
2014-Nov-16 07:00N 54°41' W 157°16'2 2.2 7.6
2014-Nov-16 06:00N 54°42' W 157°13'1 1.2 7.6
2014-Nov-16 05:00N 54°43' W 157°11'1 0.6 7.6
2014-Nov-16 04:00N 54°42' W 157°11'2 1.5 7.7
2014-Nov-16 03:00N 54°43' W 157°08'0 0.3 7.7
2014-Nov-16 02:00N 54°43' W 157°09'2 1.8 7.7
2014-Nov-16 01:00N 54°43' W 157°06'2 1.8 7.7
2014-Nov-16 00:00N 54°44' W 157°04'   7.6

Dump ship's entire track history